createdAt,value
2022-10-17T00:00:31.780Z,15.92
2022-10-17T00:02:59.583Z,15.93
2022-10-17T00:05:27.833Z,15.93
2022-10-17T00:07:56.176Z,15.92
2022-10-17T00:10:26.023Z,15.92
2022-10-17T00:12:54.139Z,15.92
2022-10-17T00:15:22.800Z,15.91
2022-10-17T00:17:50.760Z,15.91
2022-10-17T00:20:18.749Z,15.83
2022-10-17T00:22:46.657Z,15.89
2022-10-17T00:25:14.468Z,15.87
2022-10-17T00:27:44.305Z,15.87
2022-10-17T00:30:14.594Z,15.85
2022-10-17T00:32:42.703Z,15.85
2022-10-17T00:35:11.497Z,15.84
2022-10-17T00:37:39.422Z,15.85
2022-10-17T00:40:09.154Z,15.83
2022-10-17T00:42:37.066Z,15.83
2022-10-17T00:45:14.871Z,15.78
2022-10-17T00:47:43.996Z,15.82
2022-10-17T00:50:12.988Z,15.81
2022-10-17T00:52:41.725Z,15.79
2022-10-17T00:55:13.387Z,15.80
2022-10-17T00:57:42.340Z,15.80
2022-10-17T01:00:13.152Z,15.70
2022-10-17T01:02:41.094Z,15.78
2022-10-17T01:05:10.700Z,15.78
2022-10-17T01:07:39.450Z,15.75
2022-10-17T01:10:09.603Z,15.76
2022-10-17T01:12:58.669Z,15.75
2022-10-17T01:15:38.874Z,15.76
2022-10-17T01:18:18.816Z,15.76
2022-10-17T01:21:28.038Z,15.75
2022-10-17T01:24:09.278Z,15.75
2022-10-17T01:26:56.461Z,15.75
2022-10-17T01:29:34.597Z,15.75
2022-10-17T01:32:10.556Z,15.75
2022-10-17T01:34:47.759Z,15.68
2022-10-17T01:37:20.454Z,15.75
2022-10-17T01:39:53.180Z,15.74
2022-10-17T01:42:26.843Z,15.74
2022-10-17T01:44:59.205Z,15.75
2022-10-17T01:47:31.862Z,15.74
2022-10-17T01:50:04.165Z,15.73
2022-10-17T01:52:39.830Z,15.74
2022-10-17T01:55:10.591Z,15.72
2022-10-17T01:57:42.035Z,15.73
2022-10-17T02:00:14.943Z,15.73
2022-10-17T02:02:46.205Z,15.73
2022-10-17T02:05:14.073Z,15.74
2022-10-17T02:07:42.946Z,15.73
2022-10-17T02:10:17.307Z,15.73
2022-10-17T02:12:56.001Z,15.72
2022-10-17T02:15:40.177Z,15.72
2022-10-17T02:18:24.373Z,15.71
2022-10-17T02:20:57.894Z,15.70
2022-10-17T02:23:33.722Z,15.70
2022-10-17T02:26:11.153Z,15.69
2022-10-17T02:28:44.288Z,15.69
2022-10-17T02:31:16.549Z,15.68
2022-10-17T02:33:51.179Z,15.67
2022-10-17T02:36:23.845Z,15.65
2022-10-17T02:38:54.724Z,15.67
2022-10-17T02:41:24.705Z,15.67
2022-10-17T02:43:57.622Z,15.66
2022-10-17T02:46:29.811Z,15.65
2022-10-17T02:49:03.253Z,15.63
2022-10-17T02:51:38.116Z,15.63
2022-10-17T02:54:13.903Z,15.62
2022-10-17T02:56:47.759Z,15.63
2022-10-17T02:59:18.576Z,15.61
2022-10-17T03:01:46.633Z,15.61
2022-10-17T03:04:16.391Z,15.61
2022-10-17T03:06:44.486Z,15.60
2022-10-17T03:09:12.219Z,15.60
2022-10-17T03:11:40.079Z,15.60
2022-10-17T03:14:07.886Z,15.60
2022-10-17T03:16:35.706Z,15.60
2022-10-17T03:19:03.575Z,15.59
2022-10-17T03:21:32.702Z,15.60
2022-10-17T03:24:00.495Z,15.60
2022-10-17T03:26:29.524Z,15.60
2022-10-17T03:28:58.147Z,15.59
2022-10-17T03:31:25.847Z,15.59
2022-10-17T03:33:53.595Z,15.58
2022-10-17T03:36:21.884Z,15.52
2022-10-17T03:38:54.729Z,15.58
2022-10-17T03:41:22.855Z,15.59
2022-10-17T03:43:50.576Z,15.58
2022-10-17T03:48:50.932Z,15.57
2022-10-17T03:51:18.757Z,15.56
2022-10-17T03:53:46.535Z,15.58
2022-10-17T03:56:17.913Z,15.58
2022-10-17T03:58:46.445Z,15.58
2022-10-17T04:01:16.599Z,15.58
2022-10-17T04:03:45.172Z,15.59
2022-10-17T04:06:13.838Z,15.51
2022-10-17T04:08:42.715Z,15.58
2022-10-17T04:11:14.578Z,15.56
2022-10-17T04:13:43.903Z,15.57
2022-10-17T04:16:14.056Z,15.57
2022-10-17T04:18:41.967Z,15.56
2022-10-17T04:21:10.578Z,15.56
2022-10-17T04:23:38.546Z,15.55
2022-10-17T04:26:07.819Z,15.55
2022-10-17T04:28:35.939Z,15.56
2022-10-17T04:31:08.068Z,15.55
2022-10-17T04:33:36.202Z,15.55
2022-10-17T04:36:06.674Z,15.55
2022-10-17T04:38:35.722Z,15.55
2022-10-17T04:41:05.857Z,15.55
2022-10-17T04:43:34.920Z,15.56
2022-10-17T04:46:04.064Z,15.56
2022-10-17T04:48:33.398Z,15.56
2022-10-17T04:51:02.810Z,15.55
2022-10-17T04:53:33.114Z,15.55
2022-10-17T04:56:01.038Z,15.55
2022-10-17T04:58:30.004Z,15.55
2022-10-17T05:00:58.159Z,15.54
2022-10-17T05:03:25.994Z,15.55
2022-10-17T05:05:55.110Z,15.54
2022-10-17T05:08:23.107Z,15.55
2022-10-17T05:10:50.895Z,15.53
2022-10-17T05:13:18.637Z,15.55
2022-10-17T05:15:46.355Z,15.56
2022-10-17T05:18:14.183Z,15.56
2022-10-17T05:20:41.944Z,15.56
2022-10-17T05:23:11.153Z,15.56
2022-10-17T05:25:38.960Z,15.56
2022-10-17T05:28:06.765Z,15.57
2022-10-17T05:30:36.847Z,15.58
2022-10-17T05:33:05.659Z,15.58
2022-10-17T05:35:33.423Z,15.58
2022-10-17T05:38:01.667Z,15.57
2022-10-17T05:40:30.796Z,15.57
2022-10-17T05:42:58.592Z,15.58
2022-10-17T05:45:26.630Z,15.57
2022-10-17T05:47:54.360Z,15.57
2022-10-17T05:50:24.020Z,15.58
2022-10-17T05:52:54.744Z,15.57
2022-10-17T05:55:22.771Z,15.58
2022-10-17T05:57:53.102Z,15.57
2022-10-17T06:00:21.568Z,15.58
2022-10-17T06:02:49.650Z,15.57
2022-10-17T06:05:17.845Z,15.58
2022-10-17T06:07:57.076Z,15.58
2022-10-17T06:10:27.360Z,15.58
2022-10-17T06:12:55.072Z,15.57
2022-10-17T06:15:22.808Z,15.57
2022-10-17T06:17:50.524Z,15.56
2022-10-17T06:20:18.406Z,15.57
2022-10-17T06:22:46.128Z,15.57
2022-10-17T06:25:15.229Z,15.55
2022-10-17T06:27:42.990Z,15.57
2022-10-17T06:30:11.421Z,15.58
2022-10-17T06:32:39.143Z,15.58
2022-10-17T06:35:07.830Z,15.59
2022-10-17T06:37:37.120Z,15.59
2022-10-17T06:40:07.898Z,15.59
2022-10-17T06:42:36.965Z,15.58
2022-10-17T06:45:04.865Z,15.58
2022-10-17T06:47:32.809Z,15.58
2022-10-17T06:50:00.740Z,15.58
2022-10-17T06:52:28.585Z,15.59
2022-10-17T06:54:56.287Z,15.60
2022-10-17T06:57:24.082Z,15.59
2022-10-17T06:59:53.352Z,15.60
2022-10-17T07:02:23.624Z,15.60
2022-10-17T07:04:51.501Z,15.60
2022-10-17T07:07:19.283Z,15.61
2022-10-17T07:09:46.990Z,15.60
2022-10-17T07:12:14.711Z,15.62
2022-10-17T07:14:42.399Z,15.62
2022-10-17T07:17:13.296Z,15.63
2022-10-17T07:19:43.374Z,15.63
2022-10-17T07:22:11.672Z,15.63
2022-10-17T07:24:39.485Z,15.66
2022-10-17T07:27:08.870Z,15.66
2022-10-17T07:29:37.155Z,15.66
2022-10-17T07:32:08.539Z,15.68
2022-10-17T07:34:37.835Z,15.69
2022-10-17T07:37:07.022Z,15.70
2022-10-17T07:39:35.649Z,15.69
2022-10-17T07:42:03.650Z,15.69
2022-10-17T07:44:31.357Z,15.70
2022-10-17T07:46:59.091Z,15.72
2022-10-17T07:49:26.787Z,15.78
2022-10-17T07:51:55.837Z,15.91
2022-10-17T07:54:23.792Z,16.09
2022-10-17T07:56:51.552Z,16.26
2022-10-17T07:59:19.617Z,16.41
2022-10-17T08:01:47.395Z,16.58
2022-10-17T08:04:16.801Z,16.74
2022-10-17T08:06:44.548Z,16.91
2022-10-17T08:09:13.749Z,16.97
2022-10-17T08:11:43.827Z,16.89
2022-10-17T08:14:12.044Z,16.90
2022-10-17T08:16:39.772Z,16.81
2022-10-17T08:21:41.869Z,16.59
2022-10-17T08:24:09.828Z,16.48
2022-10-17T08:26:42.373Z,16.46
2022-10-17T08:29:14.173Z,16.41
2022-10-17T08:31:45.288Z,16.36
2022-10-17T08:34:15.852Z,16.34
2022-10-17T08:36:43.641Z,16.30
2022-10-17T08:39:11.299Z,16.28
2022-10-17T08:41:52.791Z,16.26
2022-10-17T08:44:34.502Z,16.22
2022-10-17T08:47:07.108Z,16.19
2022-10-17T08:49:41.651Z,16.20
2022-10-17T08:52:18.504Z,16.19
2022-10-17T08:54:47.970Z,16.16
2022-10-17T08:57:18.663Z,16.16
2022-10-17T08:59:52.004Z,16.14
2022-10-17T09:02:44.394Z,16.13
2022-10-17T09:05:35.907Z,16.12
2022-10-17T09:08:13.930Z,16.10
2022-10-17T09:10:51.731Z,16.11
2022-10-17T09:13:41.844Z,16.08
2022-10-17T09:16:26.106Z,16.10
2022-10-17T09:19:02.874Z,16.10
2022-10-17T09:21:34.552Z,16.09
2022-10-17T09:24:09.548Z,16.09
2022-10-17T09:26:38.429Z,16.14
2022-10-17T09:29:21.678Z,16.03
2022-10-17T09:31:58.696Z,16.09
2022-10-17T09:34:29.373Z,16.08
2022-10-17T09:36:59.479Z,16.07
2022-10-17T09:39:31.866Z,16.05
2022-10-17T09:42:01.126Z,16.06
2022-10-17T09:44:34.023Z,16.06
2022-10-17T09:47:19.102Z,16.07
2022-10-17T09:49:48.489Z,16.07
2022-10-17T09:52:19.108Z,16.15
2022-10-17T09:54:49.431Z,16.25
2022-10-17T09:57:18.787Z,16.43
2022-10-17T09:59:56.732Z,16.62
2022-10-17T10:02:27.045Z,16.82
2022-10-17T10:05:06.597Z,16.93
2022-10-17T10:07:38.286Z,16.94
2022-10-17T10:10:08.751Z,16.89
2022-10-17T10:12:38.411Z,16.83
2022-10-17T10:15:32.431Z,16.74
2022-10-17T10:18:00.118Z,16.66
2022-10-17T10:20:35.765Z,16.60
2022-10-17T10:23:08.649Z,16.56
2022-10-17T10:25:36.633Z,16.52
2022-10-17T10:28:11.824Z,16.50
2022-10-17T10:30:40.940Z,16.48
2022-10-17T10:33:12.757Z,16.45
2022-10-17T10:35:40.849Z,16.35
2022-10-17T10:38:12.511Z,16.40
2022-10-17T10:40:47.359Z,16.40
2022-10-17T10:43:25.127Z,16.38
2022-10-17T10:45:54.402Z,16.38
2022-10-17T10:48:24.167Z,16.35
2022-10-17T10:50:57.271Z,16.36
2022-10-17T10:53:35.719Z,16.34
2022-10-17T10:56:18.171Z,16.33
2022-10-17T10:58:56.652Z,16.31
2022-10-17T11:01:32.614Z,16.31
2022-10-17T11:04:22.072Z,16.30
2022-10-17T11:06:53.705Z,16.31
2022-10-17T11:09:33.683Z,16.31
2022-10-17T11:12:07.214Z,16.31
2022-10-17T11:14:48.662Z,16.31
2022-10-17T11:17:31.715Z,16.28
2022-10-17T11:20:11.663Z,16.31
2022-10-17T11:22:44.176Z,16.31
2022-10-17T11:25:25.939Z,16.31
2022-10-17T11:27:53.729Z,16.25
2022-10-17T11:30:24.521Z,16.32
2022-10-17T11:32:56.799Z,16.33
2022-10-17T11:35:27.417Z,16.32
2022-10-17T11:38:04.306Z,16.33
2022-10-17T11:40:36.342Z,16.33
2022-10-17T11:43:07.843Z,16.30
2022-10-17T11:45:43.549Z,16.33
2022-10-17T11:48:18.559Z,16.33
2022-10-17T11:53:48.796Z,16.33
2022-10-17T11:56:21.105Z,16.32
2022-10-17T11:58:54.402Z,16.33
2022-10-17T12:01:28.828Z,16.34
2022-10-17T12:04:18.050Z,16.33
2022-10-17T12:06:57.713Z,16.33
2022-10-17T12:09:33.342Z,16.33
2022-10-17T12:12:03.132Z,16.34
2022-10-17T12:14:45.074Z,16.34
2022-10-17T12:17:40.999Z,16.35
2022-10-17T12:20:33.090Z,16.34
2022-10-17T12:23:27.319Z,16.35
2022-10-17T12:26:01.131Z,16.34
2022-10-17T12:28:32.880Z,16.39
2022-10-17T12:31:03.229Z,16.37
2022-10-17T12:33:50.468Z,16.36
2022-10-17T12:36:49.798Z,16.38
2022-10-17T12:39:51.325Z,16.36
2022-10-17T12:42:33.837Z,16.36
2022-10-17T12:45:01.810Z,16.34
2022-10-17T12:47:39.038Z,16.38
2022-10-17T12:50:40.623Z,16.39
2022-10-17T12:53:18.543Z,16.40
2022-10-17T12:55:47.766Z,16.39
2022-10-17T12:58:17.613Z,16.39
2022-10-17T13:01:19.169Z,16.40
2022-10-17T13:03:44.481Z,16.40
2022-10-17T13:06:19.528Z,16.37
2022-10-17T13:08:55.398Z,16.40
2022-10-17T13:11:26.851Z,16.40
2022-10-17T13:13:58.694Z,16.40
2022-10-17T13:16:30.374Z,16.41
2022-10-17T13:18:58.418Z,16.41
2022-10-17T13:21:26.427Z,16.42
2022-10-17T13:23:55.859Z,16.43
2022-10-17T13:26:25.470Z,16.34
2022-10-17T13:29:04.893Z,16.43
2022-10-17T13:31:35.694Z,16.44
2022-10-17T13:34:05.158Z,16.44
2022-10-17T13:36:35.107Z,16.44
2022-10-17T13:39:13.044Z,16.44
2022-10-17T13:41:43.102Z,16.44
2022-10-17T13:44:16.156Z,16.44
2022-10-17T13:46:44.756Z,16.43
2022-10-17T13:49:19.017Z,16.46
2022-10-17T13:51:48.907Z,16.46
2022-10-17T13:54:36.252Z,16.47
2022-10-17T13:57:06.162Z,16.47
2022-10-17T13:59:39.967Z,16.47
2022-10-17T14:02:14.414Z,16.47
2022-10-17T14:05:11.648Z,16.48
2022-10-17T14:07:58.443Z,16.48
2022-10-17T14:10:28.028Z,16.48
2022-10-17T14:12:56.369Z,16.49
2022-10-17T14:15:27.256Z,16.49
2022-10-17T14:17:57.787Z,16.45
2022-10-17T14:21:01.598Z,16.52
2022-10-17T14:23:31.583Z,16.51
2022-10-17T14:26:09.986Z,16.51
2022-10-17T14:28:38.186Z,16.51
2022-10-17T14:31:25.016Z,16.60
2022-10-17T14:33:54.091Z,16.55
2022-10-17T14:36:30.898Z,16.55
2022-10-17T14:38:58.902Z,16.55
2022-10-17T14:41:44.680Z,16.54
2022-10-17T14:44:21.812Z,16.54
2022-10-17T14:46:54.047Z,16.54
2022-10-17T14:49:27.372Z,16.54
2022-10-17T14:52:15.156Z,16.54
2022-10-17T14:54:47.471Z,16.54
2022-10-17T14:57:20.559Z,16.53
2022-10-17T14:59:55.821Z,16.54
2022-10-17T15:02:24.478Z,16.54
2022-10-17T15:04:52.548Z,16.56
2022-10-17T15:07:22.149Z,16.53
2022-10-17T15:09:52.558Z,16.57
2022-10-17T15:12:24.826Z,16.56
2022-10-17T15:14:52.878Z,16.57
2022-10-17T15:17:24.493Z,16.57
2022-10-17T15:19:52.160Z,16.57
2022-10-17T15:22:19.964Z,16.58
2022-10-17T15:24:47.638Z,16.58
2022-10-17T15:27:17.202Z,16.58
2022-10-17T15:29:46.990Z,16.60
2022-10-17T15:32:15.141Z,16.61
2022-10-17T15:34:43.135Z,16.61
2022-10-17T15:37:18.519Z,16.62
2022-10-17T15:39:48.025Z,16.61
2022-10-17T15:42:15.658Z,16.62
2022-10-17T15:44:44.500Z,16.62
2022-10-17T15:47:24.273Z,16.62
2022-10-17T15:49:51.943Z,16.63
2022-10-17T15:52:20.096Z,16.64
2022-10-17T15:54:47.811Z,16.63
2022-10-17T15:57:20.133Z,16.63
2022-10-17T15:59:48.839Z,16.62
2022-10-17T16:02:20.219Z,16.64
2022-10-17T16:04:49.029Z,16.63
2022-10-17T16:07:16.955Z,16.64
2022-10-17T16:09:44.601Z,16.63
2022-10-17T16:12:16.307Z,16.63
2022-10-17T16:14:44.044Z,16.65
2022-10-17T16:17:14.518Z,16.64
2022-10-17T16:19:44.254Z,16.64
2022-10-17T16:22:19.859Z,16.64
2022-10-17T16:24:47.663Z,16.64
2022-10-17T16:27:15.351Z,16.64
2022-10-17T16:29:43.014Z,16.63
2022-10-17T16:32:11.338Z,16.63
2022-10-17T16:34:38.970Z,16.64
2022-10-17T16:37:08.166Z,16.64
2022-10-17T16:39:35.886Z,16.64
2022-10-17T16:42:03.568Z,16.64
2022-10-17T16:44:31.202Z,16.63
2022-10-17T16:46:58.855Z,16.63
2022-10-17T16:49:26.534Z,16.63
2022-10-17T16:51:54.236Z,16.63
2022-10-17T16:54:24.853Z,16.60
2022-10-17T16:56:52.539Z,16.63
2022-10-17T16:59:20.274Z,16.62
2022-10-17T17:01:47.975Z,16.61
2022-10-17T17:04:15.751Z,16.62
2022-10-17T17:09:16.703Z,16.60
2022-10-17T17:11:45.785Z,16.61
2022-10-17T17:14:13.943Z,16.60
2022-10-17T17:16:42.743Z,16.60
2022-10-17T17:19:14.116Z,16.60
2022-10-17T17:21:43.143Z,16.59
2022-10-17T17:24:10.861Z,16.61
2022-10-17T17:26:38.995Z,16.63
2022-10-17T17:29:08.261Z,16.65
2022-10-17T17:31:38.930Z,16.65
2022-10-17T17:34:07.020Z,16.68
2022-10-17T17:36:37.410Z,16.64
2022-10-17T17:39:06.867Z,16.67
2022-10-17T17:41:35.351Z,16.65
2022-10-17T17:44:04.258Z,16.68
2022-10-17T17:46:33.894Z,16.66
2022-10-17T17:49:01.830Z,16.66
2022-10-17T17:51:29.733Z,16.68
2022-10-17T17:53:58.460Z,16.68
2022-10-17T17:56:28.403Z,16.71
2022-10-17T17:58:57.865Z,16.73
2022-10-17T18:01:27.634Z,16.74
2022-10-17T18:03:58.900Z,16.74
2022-10-17T18:06:27.726Z,16.75
2022-10-17T18:08:57.754Z,16.75
2022-10-17T18:11:25.827Z,16.67
2022-10-17T18:13:57.915Z,16.74
2022-10-17T18:16:26.266Z,16.74
2022-10-17T18:18:54.014Z,16.74
2022-10-17T18:21:23.145Z,16.72
2022-10-17T18:23:51.861Z,16.72
2022-10-17T18:26:20.004Z,16.72
2022-10-17T18:28:47.983Z,16.71
2022-10-17T18:31:19.081Z,16.71
2022-10-17T18:33:47.159Z,16.71
2022-10-17T18:36:16.327Z,16.69
2022-10-17T18:38:45.371Z,16.69
2022-10-17T18:41:16.211Z,16.68
2022-10-17T18:43:45.696Z,16.66
2022-10-17T18:46:15.245Z,16.67
2022-10-17T18:48:45.329Z,16.67
2022-10-17T18:51:14.112Z,16.59
2022-10-17T18:53:42.678Z,16.65
2022-10-17T18:56:13.162Z,16.63
2022-10-17T18:58:41.610Z,16.64
2022-10-17T19:01:11.529Z,16.63
2022-10-17T19:03:39.488Z,16.63
2022-10-17T19:06:09.768Z,16.63
2022-10-17T19:08:38.459Z,16.62
2022-10-17T19:11:07.275Z,16.60
2022-10-17T19:13:36.799Z,16.60
2022-10-17T19:16:06.733Z,16.60
2022-10-17T19:18:34.890Z,16.60
2022-10-17T19:21:04.026Z,16.59
2022-10-17T19:23:32.174Z,16.60
2022-10-17T19:26:03.531Z,16.60
2022-10-17T19:28:31.263Z,16.58
2022-10-17T19:31:00.396Z,16.59
2022-10-17T19:36:03.012Z,16.58
2022-10-17T19:38:31.071Z,16.57
2022-10-17T19:43:27.984Z,16.58
2022-10-17T19:45:56.835Z,16.58
2022-10-17T19:48:26.621Z,16.56
2022-10-17T19:50:54.716Z,16.56
2022-10-17T19:53:24.168Z,16.57
2022-10-17T19:55:52.297Z,16.56
2022-10-17T19:58:20.621Z,16.56
2022-10-17T20:00:48.942Z,16.54
2022-10-17T20:03:16.838Z,16.55
2022-10-17T20:05:46.330Z,16.56
2022-10-17T20:08:14.527Z,16.47
2022-10-17T20:10:42.528Z,16.55
2022-10-17T20:13:10.649Z,16.51
2022-10-17T20:15:38.581Z,16.54
2022-10-17T20:18:07.458Z,16.50
2022-10-17T20:20:35.610Z,16.52
2022-10-17T20:23:05.151Z,16.53
2022-10-17T20:25:33.383Z,16.53
2022-10-17T20:28:01.265Z,16.51
2022-10-17T20:30:28.941Z,16.52
2022-10-17T20:32:56.644Z,16.51
2022-10-17T20:35:24.306Z,16.52
2022-10-17T20:37:53.285Z,16.50
2022-10-17T20:40:34.815Z,16.51
2022-10-17T20:43:03.829Z,16.47
2022-10-17T20:45:45.081Z,16.49
2022-10-17T20:48:19.274Z,16.49
2022-10-17T20:50:46.943Z,16.49
2022-10-17T20:56:05.313Z,16.48
2022-10-17T20:58:32.997Z,16.48
2022-10-17T21:01:06.279Z,16.48
2022-10-17T21:03:37.065Z,16.47
2022-10-17T21:06:08.976Z,16.46
2022-10-17T21:08:36.734Z,16.45
2022-10-17T21:11:10.488Z,16.44
2022-10-17T21:13:38.453Z,16.44
2022-10-17T21:16:08.089Z,16.43
2022-10-17T21:18:35.856Z,16.43
2022-10-17T21:21:16.026Z,16.41
2022-10-17T21:23:45.387Z,16.41
2022-10-17T21:26:14.845Z,16.40
2022-10-17T21:28:43.552Z,16.40
2022-10-17T21:31:13.450Z,16.39
2022-10-17T21:33:42.166Z,16.39
2022-10-17T21:36:10.774Z,16.34
2022-10-17T21:38:39.292Z,16.37
2022-10-17T21:41:09.311Z,16.37
2022-10-17T21:43:39.529Z,16.36
2022-10-17T21:46:08.937Z,16.36
2022-10-17T21:48:37.111Z,16.35
2022-10-17T21:51:06.906Z,16.35
2022-10-17T21:53:35.549Z,16.32
2022-10-17T21:56:04.038Z,16.33
2022-10-17T21:58:32.577Z,16.31
2022-10-17T22:01:09.730Z,16.32
2022-10-17T22:03:42.636Z,16.27
2022-10-17T22:09:02.854Z,16.31
2022-10-17T22:11:32.491Z,16.30
2022-10-17T22:14:03.186Z,16.19
2022-10-17T22:16:32.403Z,16.29
2022-10-17T22:19:04.821Z,16.30
2022-10-17T22:21:34.857Z,16.30
2022-10-17T22:24:04.800Z,16.26
2022-10-17T22:26:34.741Z,16.25
2022-10-17T22:29:02.897Z,16.26
2022-10-17T22:31:32.331Z,16.27
2022-10-17T22:34:00.035Z,16.26
2022-10-17T22:36:28.026Z,16.26
2022-10-17T22:38:56.032Z,16.26
2022-10-17T22:41:23.814Z,16.25
2022-10-17T22:43:51.481Z,16.25
2022-10-17T22:46:19.217Z,16.23
2022-10-17T22:48:48.413Z,16.24
2022-10-17T22:51:16.139Z,16.23
2022-10-17T22:53:43.854Z,16.23
2022-10-17T22:56:13.497Z,16.22
2022-10-17T22:58:41.641Z,16.22
2022-10-17T23:01:11.078Z,16.21
2022-10-17T23:03:38.738Z,16.21
2022-10-17T23:06:08.267Z,16.19
2022-10-17T23:08:36.319Z,16.20
2022-10-17T23:11:04.131Z,16.18
2022-10-17T23:13:31.799Z,16.17
2022-10-17T23:15:59.736Z,16.17
2022-10-17T23:18:28.157Z,16.16
2022-10-17T23:20:56.537Z,16.16
2022-10-17T23:23:25.652Z,16.15
2022-10-17T23:25:53.331Z,16.15
2022-10-17T23:28:21.237Z,16.13
2022-10-17T23:30:48.899Z,16.13
2022-10-17T23:33:16.564Z,16.11
2022-10-17T23:35:44.199Z,16.11
2022-10-17T23:38:11.822Z,16.11
2022-10-17T23:40:40.835Z,16.08
2022-10-17T23:43:08.509Z,16.07
2022-10-17T23:45:37.195Z,16.10
2022-10-17T23:48:05.842Z,16.10
2022-10-17T23:50:33.495Z,16.09
2022-10-17T23:53:01.179Z,16.08
2022-10-17T23:55:29.091Z,16.09
2022-10-17T23:57:58.074Z,16.07
